createdAt,value
2022-12-25T00:01:40.378Z,4.95
2022-12-25T00:04:10.010Z,4.80
2022-12-25T00:06:42.292Z,5.75
2022-12-25T00:09:11.977Z,4.78
2022-12-25T00:11:41.566Z,5.45
2022-12-25T00:14:11.138Z,4.72
2022-12-25T00:16:40.764Z,4.57
2022-12-25T00:19:10.418Z,5.30
2022-12-25T00:21:42.623Z,5.07
2022-12-25T00:24:12.491Z,4.80
2022-12-25T00:26:42.188Z,5.10
2022-12-25T00:29:15.191Z,4.53
2022-12-25T00:31:44.804Z,4.55
2022-12-25T00:34:14.415Z,4.50
2022-12-25T00:36:46.598Z,4.60
2022-12-25T00:39:16.198Z,5.10
2022-12-25T00:41:58.254Z,5.70
2022-12-25T00:44:27.815Z,5.28
2022-12-25T00:46:57.495Z,5.72
2022-12-25T00:49:27.147Z,5.00
2022-12-25T00:51:59.693Z,5.10
2022-12-25T00:54:29.318Z,4.50
2022-12-25T00:56:58.931Z,4.47
2022-12-25T00:59:28.542Z,4.53
2022-12-25T01:02:18.195Z,4.35
2022-12-25T01:04:48.147Z,3.58
2022-12-25T01:07:20.410Z,4.45
2022-12-25T01:10:03.125Z,3.50
2022-12-25T01:12:34.114Z,4.47
2022-12-25T01:15:03.858Z,4.13
2022-12-25T01:17:33.438Z,3.90
2022-12-25T01:20:03.260Z,4.05
2022-12-25T01:22:35.423Z,4.13
2022-12-25T01:25:05.164Z,3.67
2022-12-25T01:27:34.926Z,4.40
2022-12-25T01:30:04.646Z,4.35
2022-12-25T01:32:34.307Z,4.20
2022-12-25T01:35:03.883Z,4.45
2022-12-25T01:37:36.118Z,4.15
2022-12-25T01:40:05.791Z,3.83
2022-12-25T01:42:35.431Z,3.60
2022-12-25T01:45:29.805Z,3.90
2022-12-25T01:47:59.509Z,3.95
2022-12-25T01:50:29.549Z,3.75
2022-12-25T01:53:01.799Z,4.00
2022-12-25T01:55:32.097Z,3.90
2022-12-25T01:58:01.755Z,4.20
2022-12-25T02:00:31.799Z,3.90
2022-12-25T02:03:01.872Z,4.10
2022-12-25T02:05:33.336Z,3.85
2022-12-25T02:08:10.643Z,3.70
2022-12-25T02:10:43.662Z,3.50
2022-12-25T02:13:14.074Z,3.50
2022-12-25T02:15:50.781Z,3.65
2022-12-25T02:18:24.568Z,3.85
2022-12-25T02:21:14.715Z,3.78
2022-12-25T02:24:24.716Z,3.55
2022-12-25T02:27:08.161Z,3.53
2022-12-25T02:29:45.351Z,4.10
2022-12-25T02:32:19.085Z,3.72
2022-12-25T02:34:53.327Z,3.97
2022-12-25T02:37:29.105Z,3.60
2022-12-25T02:40:00.540Z,3.72
2022-12-25T02:42:49.773Z,3.72
2022-12-25T02:45:38.091Z,3.63
2022-12-25T02:48:22.029Z,3.65
2022-12-25T02:51:04.530Z,3.75
2022-12-25T02:53:47.652Z,3.50
2022-12-25T02:56:41.731Z,3.25
2022-12-25T02:59:23.821Z,3.33
2022-12-25T03:02:09.018Z,3.35
2022-12-25T03:04:52.230Z,3.20
2022-12-25T03:07:23.545Z,3.20
2022-12-25T03:10:10.871Z,3.40
2022-12-25T03:12:46.991Z,3.72
2022-12-25T03:15:29.355Z,3.30
2022-12-25T03:18:03.790Z,3.00
2022-12-25T03:20:47.327Z,3.53
2022-12-25T03:23:30.737Z,3.60
2022-12-25T03:26:12.822Z,3.72
2022-12-25T03:28:42.392Z,3.08
2022-12-25T03:31:17.320Z,3.70
2022-12-25T03:34:29.340Z,3.50
2022-12-25T03:37:33.246Z,3.30
2022-12-25T03:40:21.360Z,3.20
2022-12-25T03:43:23.953Z,3.58
2022-12-25T03:49:07.359Z,3.20
2022-12-25T03:51:52.919Z,3.47
2022-12-25T03:54:38.566Z,3.30
2022-12-25T03:57:20.678Z,3.55
2022-12-25T04:00:02.630Z,3.28
2022-12-25T04:02:51.564Z,3.40
2022-12-25T04:05:33.593Z,3.45
2022-12-25T04:08:18.391Z,3.60
2022-12-25T04:11:00.338Z,3.58
2022-12-25T04:13:42.467Z,3.28
2022-12-25T04:16:36.075Z,3.60
2022-12-25T04:19:18.036Z,3.25
2022-12-25T04:22:00.057Z,3.35
2022-12-25T04:24:53.362Z,3.50
2022-12-25T04:27:35.326Z,3.50
2022-12-25T04:30:17.362Z,3.47
2022-12-25T04:32:59.388Z,3.17
2022-12-25T04:35:41.393Z,3.80
2022-12-25T04:38:10.888Z,3.53
2022-12-25T04:40:42.960Z,3.80
2022-12-25T04:43:12.473Z,3.40
2022-12-25T04:45:41.944Z,3.13
2022-12-25T04:48:11.481Z,4.22
2022-12-25T04:50:40.967Z,3.28
2022-12-25T04:53:10.506Z,3.42
2022-12-25T04:55:40.055Z,3.60
2022-12-25T04:58:12.332Z,3.28
2022-12-25T05:00:41.876Z,3.70
2022-12-25T05:03:11.470Z,3.72
2022-12-25T05:05:42.339Z,3.90
2022-12-25T05:08:11.820Z,3.63
2022-12-25T05:10:42.841Z,2.92
2022-12-25T05:13:15.056Z,3.28
2022-12-25T05:15:44.751Z,3.00
2022-12-25T05:18:14.286Z,3.40
2022-12-25T05:20:43.831Z,3.30
2022-12-25T05:23:13.932Z,3.20
2022-12-25T05:25:43.443Z,3.13
2022-12-25T05:28:15.633Z,2.75
2022-12-25T05:30:45.299Z,3.00
2022-12-25T05:33:14.846Z,3.15
2022-12-25T05:35:44.333Z,3.10
2022-12-25T05:38:13.845Z,3.28
2022-12-25T05:40:43.516Z,3.40
2022-12-25T05:43:15.636Z,3.30
2022-12-25T05:45:45.098Z,3.63
2022-12-25T05:48:14.757Z,3.13
2022-12-25T05:50:44.233Z,3.28
2022-12-25T05:53:15.504Z,3.60
2022-12-25T05:55:46.237Z,3.42
2022-12-25T05:58:18.309Z,3.20
2022-12-25T06:00:47.812Z,3.05
2022-12-25T06:03:17.404Z,3.40
2022-12-25T06:05:46.994Z,3.20
2022-12-25T06:08:16.553Z,3.08
2022-12-25T06:10:46.018Z,3.13
2022-12-25T06:13:18.092Z,3.33
2022-12-25T06:15:47.589Z,2.75
2022-12-25T06:18:17.087Z,3.47
2022-12-25T06:20:46.624Z,2.97
2022-12-25T06:23:16.134Z,3.05
2022-12-25T06:25:45.597Z,2.85
2022-12-25T06:28:17.696Z,2.95
2022-12-25T06:30:47.189Z,2.83
2022-12-25T06:33:16.664Z,2.97
2022-12-25T06:35:46.187Z,2.97
2022-12-25T06:38:15.684Z,3.10
2022-12-25T06:40:45.227Z,2.97
2022-12-25T06:43:14.706Z,2.88
2022-12-25T06:45:47.792Z,2.70
2022-12-25T06:48:17.295Z,3.00
2022-12-25T06:50:46.776Z,3.00
2022-12-25T06:53:16.249Z,2.75
2022-12-25T06:55:45.732Z,3.10
2022-12-25T06:58:15.380Z,2.72
2022-12-25T07:00:47.527Z,3.15
2022-12-25T07:03:21.110Z,3.13
2022-12-25T07:05:50.927Z,3.08
2022-12-25T07:08:20.407Z,3.30
2022-12-25T07:10:49.899Z,3.15
2022-12-25T07:13:19.404Z,3.00
2022-12-25T07:15:51.473Z,3.10
2022-12-25T07:18:20.942Z,3.13
2022-12-25T07:20:50.483Z,3.20
2022-12-25T07:23:19.971Z,3.22
2022-12-25T07:25:56.348Z,3.40
2022-12-25T07:28:26.053Z,3.40
2022-12-25T07:31:03.089Z,3.50
2022-12-25T07:33:32.626Z,3.33
2022-12-25T07:36:02.250Z,3.17
2022-12-25T07:38:31.887Z,3.55
2022-12-25T07:41:01.422Z,3.63
2022-12-25T07:43:30.970Z,3.88
2022-12-25T07:46:03.536Z,4.30
2022-12-25T07:48:33.331Z,4.22
2022-12-25T07:51:05.069Z,4.40
2022-12-25T07:53:35.419Z,4.22
2022-12-25T07:56:06.360Z,3.88
2022-12-25T07:58:36.469Z,4.25
2022-12-25T08:01:10.839Z,4.25
2022-12-25T08:03:41.045Z,4.13
2022-12-25T08:06:12.101Z,4.28
2022-12-25T08:08:42.293Z,4.47
2022-12-25T08:11:12.507Z,4.00
2022-12-25T08:13:42.060Z,4.18
2022-12-25T08:16:14.255Z,4.00
2022-12-25T08:18:44.422Z,4.00
2022-12-25T08:21:16.098Z,4.63
2022-12-25T08:23:46.988Z,4.05
2022-12-25T08:26:18.729Z,4.05
2022-12-25T08:28:48.389Z,3.78
2022-12-25T08:31:23.905Z,3.78
2022-12-25T08:33:55.534Z,4.13
2022-12-25T08:36:25.692Z,3.78
2022-12-25T08:39:02.508Z,4.03
2022-12-25T08:41:33.380Z,4.38
2022-12-25T08:44:02.856Z,4.13
2022-12-25T08:46:35.297Z,4.30
2022-12-25T08:49:04.805Z,4.10
2022-12-25T08:51:34.501Z,4.82
2022-12-25T08:54:03.973Z,4.10
2022-12-25T08:56:33.616Z,4.22
2022-12-25T08:59:03.146Z,4.22
2022-12-25T09:01:35.366Z,4.43
2022-12-25T09:04:05.046Z,4.10
2022-12-25T09:06:34.569Z,4.45
2022-12-25T09:09:04.052Z,4.10
2022-12-25T09:11:33.536Z,3.83
2022-12-25T09:14:03.145Z,4.60
2022-12-25T09:16:35.655Z,4.65
2022-12-25T09:19:05.140Z,5.10
2022-12-25T09:21:36.733Z,4.95
2022-12-25T09:24:06.505Z,5.00
2022-12-25T09:26:36.447Z,4.72
2022-12-25T09:29:06.217Z,5.15
2022-12-25T09:31:38.428Z,5.70
2022-12-25T09:34:08.080Z,5.43
2022-12-25T09:36:37.673Z,5.18
2022-12-25T09:39:07.354Z,4.95
2022-12-25T09:41:39.426Z,5.47
2022-12-25T09:44:11.137Z,4.97
2022-12-25T09:46:55.120Z,5.57
2022-12-25T09:49:30.274Z,5.03
2022-12-25T09:52:04.182Z,5.28
2022-12-25T09:54:40.861Z,6.03
2022-12-25T09:57:13.855Z,5.45
2022-12-25T09:59:47.511Z,5.18
2022-12-25T10:02:37.668Z,5.63
2022-12-25T10:05:31.329Z,5.72
2022-12-25T10:08:06.013Z,5.50
2022-12-25T10:10:53.317Z,5.85
2022-12-25T10:13:43.734Z,5.43
2022-12-25T10:16:21.174Z,5.97
2022-12-25T10:19:07.799Z,6.00
2022-12-25T10:21:37.395Z,5.63
2022-12-25T10:24:22.372Z,5.65
2022-12-25T10:26:53.547Z,5.45
2022-12-25T10:29:23.127Z,5.47
2022-12-25T10:31:55.559Z,5.80
2022-12-25T10:34:27.967Z,5.65
2022-12-25T10:36:57.807Z,5.35
2022-12-25T10:39:28.972Z,5.55
2022-12-25T10:42:24.713Z,5.38
2022-12-25T10:44:59.324Z,6.05
2022-12-25T10:47:30.709Z,5.72
2022-12-25T10:50:03.468Z,5.50
2022-12-25T10:52:33.050Z,6.00
2022-12-25T10:55:13.620Z,5.13
2022-12-25T10:57:47.863Z,5.55
2022-12-25T11:00:24.328Z,5.70
2022-12-25T11:02:54.359Z,5.63
2022-12-25T11:05:31.106Z,5.55
2022-12-25T11:08:02.681Z,5.15
2022-12-25T11:10:34.721Z,5.47
2022-12-25T11:13:04.740Z,4.88
2022-12-25T11:15:40.144Z,5.88
2022-12-25T11:18:22.311Z,5.05
2022-12-25T11:20:56.384Z,5.00
2022-12-25T11:23:27.477Z,5.47
2022-12-25T11:26:01.076Z,5.45
2022-12-25T11:28:33.233Z,5.38
2022-12-25T11:31:05.489Z,5.22
2022-12-25T11:33:38.459Z,5.50
2022-12-25T11:36:18.223Z,5.80
2022-12-25T11:38:47.991Z,5.35
2022-12-25T11:41:20.831Z,5.82
2022-12-25T11:43:53.516Z,5.28
2022-12-25T11:46:27.084Z,5.47
2022-12-25T11:48:59.143Z,5.60
2022-12-25T11:51:34.870Z,5.45
2022-12-25T11:54:08.487Z,5.20
2022-12-25T11:56:40.593Z,5.60
2022-12-25T11:59:18.051Z,5.25
2022-12-25T12:01:51.288Z,5.95
2022-12-25T12:04:29.208Z,5.97
2022-12-25T12:07:06.268Z,5.80
2022-12-25T12:09:43.428Z,5.65
2022-12-25T12:12:18.550Z,5.88
2022-12-25T12:14:55.573Z,5.68
2022-12-25T12:17:25.274Z,5.70
2022-12-25T12:19:55.062Z,6.15
2022-12-25T12:22:28.988Z,5.53
2022-12-25T12:25:02.632Z,5.35
2022-12-25T12:27:36.424Z,5.93
2022-12-25T12:30:07.014Z,5.95
2022-12-25T12:32:42.628Z,5.50
2022-12-25T12:35:18.697Z,6.00
2022-12-25T12:37:54.291Z,6.05
2022-12-25T12:40:31.035Z,6.03
2022-12-25T12:43:00.896Z,6.30
2022-12-25T12:45:34.147Z,6.10
2022-12-25T12:48:03.947Z,6.40
2022-12-25T12:50:37.802Z,6.45
2022-12-25T12:53:31.242Z,6.85
2022-12-25T12:56:11.957Z,6.43
2022-12-25T12:58:45.444Z,6.90
2022-12-25T13:01:22.153Z,6.97
2022-12-25T13:04:14.417Z,7.35
2022-12-25T13:06:46.935Z,6.45
2022-12-25T13:09:30.188Z,6.40
2022-12-25T13:11:59.883Z,6.40
2022-12-25T13:14:29.692Z,6.78
2022-12-25T13:16:59.768Z,6.07
2022-12-25T13:19:31.430Z,6.13
2022-12-25T13:22:02.348Z,5.75
2022-12-25T13:24:36.033Z,6.85
2022-12-25T13:27:23.597Z,6.95
2022-12-25T13:29:53.264Z,7.15
2022-12-25T13:32:26.578Z,6.50
2022-12-25T13:34:56.969Z,6.38
2022-12-25T13:37:28.416Z,5.95
2022-12-25T13:40:02.821Z,6.10
2022-12-25T13:42:31.729Z,6.95
2022-12-25T13:45:02.636Z,6.90
2022-12-25T13:47:34.871Z,6.97
2022-12-25T13:50:17.250Z,5.93
2022-12-25T13:52:46.883Z,6.53
2022-12-25T13:55:20.129Z,6.60
2022-12-25T13:57:54.631Z,6.82
2022-12-25T14:00:28.139Z,6.18
2022-12-25T14:02:57.906Z,7.00
2022-12-25T14:05:39.697Z,6.90
2022-12-25T14:08:16.878Z,7.50
2022-12-25T14:10:52.219Z,6.50
2022-12-25T14:13:24.205Z,6.63
2022-12-25T14:15:54.290Z,8.35
2022-12-25T14:18:25.226Z,6.72
2022-12-25T14:21:01.173Z,6.10
2022-12-25T14:23:35.810Z,6.30
2022-12-25T14:26:08.226Z,5.85
2022-12-25T14:28:37.864Z,13.70
2022-12-25T14:31:07.866Z,6.25
2022-12-25T14:33:40.102Z,8.27
2022-12-25T14:36:10.614Z,6.15
2022-12-25T14:38:41.681Z,6.20
2022-12-25T14:41:33.676Z,5.82
2022-12-25T14:44:04.693Z,6.53
2022-12-25T14:46:36.027Z,6.20
2022-12-25T14:49:07.216Z,6.30
2022-12-25T14:51:40.116Z,6.18
2022-12-25T14:54:18.584Z,6.13
2022-12-25T14:56:56.137Z,6.40
2022-12-25T14:59:28.283Z,7.00
2022-12-25T15:02:01.121Z,6.10
2022-12-25T15:04:31.397Z,6.25
2022-12-25T15:07:07.313Z,6.53
2022-12-25T15:09:37.796Z,6.38
2022-12-25T15:12:10.249Z,6.10
2022-12-25T15:14:40.294Z,6.22
2022-12-25T15:17:09.881Z,6.95
2022-12-25T15:19:40.422Z,6.00
2022-12-25T15:22:10.049Z,6.10
2022-12-25T15:24:39.630Z,12.38
2022-12-25T15:27:16.279Z,6.63
2022-12-25T15:30:09.356Z,6.22
2022-12-25T15:32:35.481Z,6.93
2022-12-25T15:35:05.047Z,7.22
2022-12-25T15:37:34.663Z,6.88
2022-12-25T15:40:06.372Z,6.43
2022-12-25T15:42:38.830Z,7.93
2022-12-25T15:45:12.173Z,6.07
2022-12-25T15:47:41.775Z,7.07
2022-12-25T15:50:12.598Z,15.60
2022-12-25T15:52:42.220Z,7.32
2022-12-25T15:55:12.800Z,6.78
2022-12-25T15:57:47.194Z,6.57
2022-12-25T16:00:19.514Z,6.22
2022-12-25T16:02:49.249Z,6.05
2022-12-25T16:05:19.152Z,15.15
2022-12-25T16:07:48.776Z,11.27
2022-12-25T16:10:22.639Z,7.25
2022-12-25T16:12:54.807Z,6.68
2022-12-25T16:15:24.396Z,6.32
2022-12-25T16:17:53.954Z,5.57
2022-12-25T16:20:23.533Z,5.80
2022-12-25T16:22:53.126Z,5.93
2022-12-25T16:25:23.532Z,7.00
2022-12-25T16:27:55.761Z,6.10
2022-12-25T16:30:25.380Z,5.90
2022-12-25T16:32:54.958Z,5.53
2022-12-25T16:35:24.541Z,5.35
2022-12-25T16:37:54.178Z,5.63
2022-12-25T16:40:23.790Z,5.95
2022-12-25T16:42:57.621Z,5.57
2022-12-25T16:45:27.208Z,5.88
2022-12-25T16:47:56.843Z,5.63
2022-12-25T16:50:26.520Z,5.90
2022-12-25T16:52:56.118Z,6.03
2022-12-25T16:55:30.024Z,6.07
2022-12-25T16:58:02.659Z,13.55
2022-12-25T17:00:32.246Z,6.63
2022-12-25T17:03:02.951Z,5.40
2022-12-25T17:05:32.684Z,5.45
2022-12-25T17:08:02.343Z,5.22
2022-12-25T17:10:32.446Z,5.28
2022-12-25T17:13:04.689Z,5.40
2022-12-25T17:15:34.280Z,5.13
2022-12-25T17:18:03.880Z,4.93
2022-12-25T17:20:33.867Z,5.45
2022-12-25T17:23:03.461Z,5.53
2022-12-25T17:25:33.174Z,5.72
2022-12-25T17:28:05.416Z,5.93
2022-12-25T17:30:36.304Z,5.93
2022-12-25T17:33:05.996Z,5.88
2022-12-25T17:35:37.829Z,5.80
2022-12-25T17:38:07.433Z,5.75
2022-12-25T17:40:37.053Z,7.00
2022-12-25T17:43:10.456Z,5.97
2022-12-25T17:45:42.628Z,6.15
2022-12-25T17:48:12.265Z,6.97
2022-12-25T17:50:41.918Z,5.57
2022-12-25T17:53:11.537Z,5.97
2022-12-25T17:55:41.357Z,11.98
2022-12-25T17:58:13.987Z,6.13
2022-12-25T18:00:43.585Z,6.00
2022-12-25T18:03:13.614Z,5.63
2022-12-25T18:05:43.370Z,6.18
2022-12-25T18:08:13.040Z,5.65
2022-12-25T18:10:44.465Z,6.78
2022-12-25T18:13:16.625Z,6.40
2022-12-25T18:15:46.348Z,6.38
2022-12-25T18:18:15.965Z,6.40
2022-12-25T18:20:45.574Z,5.97
2022-12-25T18:23:15.284Z,6.25
2022-12-25T18:25:45.521Z,5.82
2022-12-25T18:28:17.977Z,7.18
2022-12-25T18:30:48.273Z,7.45
2022-12-25T18:33:17.916Z,6.30
2022-12-25T18:35:47.661Z,6.18
2022-12-25T18:38:17.657Z,6.30
2022-12-25T18:40:48.876Z,6.30
2022-12-25T18:43:21.138Z,6.47
2022-12-25T18:46:10.813Z,6.00
2022-12-25T18:48:41.202Z,5.78
2022-12-25T18:51:11.934Z,5.93
2022-12-25T18:53:44.722Z,6.30
2022-12-25T18:56:17.249Z,6.57
2022-12-25T18:58:50.233Z,6.40
2022-12-25T19:01:22.049Z,6.85
2022-12-25T19:03:53.140Z,6.97
2022-12-25T19:06:26.697Z,6.00
2022-12-25T19:08:57.904Z,7.15
2022-12-25T19:11:27.546Z,6.55
2022-12-25T19:13:59.733Z,6.28
2022-12-25T19:16:29.432Z,6.72
2022-12-25T19:18:59.680Z,7.78
2022-12-25T19:21:29.373Z,9.75
2022-12-25T19:23:59.025Z,6.70
2022-12-25T19:26:28.660Z,6.22
2022-12-25T19:29:00.837Z,6.50
2022-12-25T19:31:30.828Z,6.18
2022-12-25T19:34:00.505Z,5.80
2022-12-25T19:36:30.145Z,18.52
2022-12-25T19:38:59.728Z,7.22
2022-12-25T19:41:29.363Z,6.32
2022-12-25T19:44:01.571Z,6.22
2022-12-25T19:46:33.695Z,6.05
2022-12-25T19:49:04.630Z,7.30
2022-12-25T19:51:35.884Z,6.25
2022-12-25T19:54:05.805Z,5.53
2022-12-25T19:56:36.414Z,5.72
2022-12-25T19:59:08.609Z,5.90
2022-12-25T20:01:38.878Z,6.03
2022-12-25T20:04:09.722Z,5.10
2022-12-25T20:06:42.616Z,5.82
2022-12-25T20:09:20.795Z,5.60
2022-12-25T20:11:50.790Z,5.70
2022-12-25T20:14:22.977Z,5.47
2022-12-25T20:16:52.659Z,5.60
2022-12-25T20:19:22.285Z,5.47
2022-12-25T20:21:51.887Z,5.32
2022-12-25T20:24:21.444Z,7.97
2022-12-25T20:26:56.959Z,5.80
2022-12-25T20:29:31.128Z,5.60
2022-12-25T20:32:00.800Z,5.25
2022-12-25T20:34:30.462Z,4.97
2022-12-25T20:37:00.052Z,5.30
2022-12-25T20:39:29.675Z,5.13
2022-12-25T20:41:59.284Z,5.20
2022-12-25T20:44:32.296Z,5.00
2022-12-25T20:47:03.543Z,5.97
2022-12-25T20:49:34.607Z,5.25
2022-12-25T20:52:05.836Z,5.43
2022-12-25T20:54:36.089Z,5.78
2022-12-25T20:57:05.756Z,4.72
2022-12-25T20:59:38.547Z,5.57
2022-12-25T21:02:08.814Z,4.75
2022-12-25T21:04:58.179Z,4.68
2022-12-25T21:07:27.796Z,3.97
2022-12-25T21:09:57.399Z,4.47
2022-12-25T21:12:26.995Z,4.57
2022-12-25T21:14:59.172Z,4.30
2022-12-25T21:17:28.816Z,4.50
2022-12-25T21:19:58.455Z,4.47
2022-12-25T21:22:28.067Z,4.90
2022-12-25T21:24:57.639Z,4.32
2022-12-25T21:27:27.248Z,4.43
2022-12-25T21:30:00.112Z,4.75
2022-12-25T21:32:57.628Z,4.72
2022-12-25T21:35:27.228Z,4.57
2022-12-25T21:37:56.829Z,4.47
2022-12-25T21:40:26.477Z,4.80
2022-12-25T21:42:56.092Z,4.72
2022-12-25T21:45:28.278Z,4.95
2022-12-25T21:48:01.494Z,4.60
2022-12-25T21:50:45.332Z,4.53
2022-12-25T21:53:18.071Z,4.40
2022-12-25T21:55:58.619Z,4.72
2022-12-25T21:58:28.272Z,4.30
2022-12-25T22:01:05.091Z,5.20
2022-12-25T22:03:34.922Z,4.72
2022-12-25T22:06:21.421Z,4.60
2022-12-25T22:08:51.487Z,4.53
2022-12-25T22:11:33.620Z,5.13
2022-12-25T22:14:15.692Z,4.50
2022-12-25T22:17:00.342Z,4.18
2022-12-25T22:19:57.518Z,4.28
2022-12-25T22:22:30.367Z,4.28
2022-12-25T22:25:01.156Z,4.00
2022-12-25T22:27:34.310Z,4.07
2022-12-25T22:30:03.963Z,4.63
2022-12-25T22:32:37.512Z,4.13
2022-12-25T22:35:07.880Z,5.32
2022-12-25T22:37:37.534Z,7.05
2022-12-25T22:40:09.962Z,5.63
2022-12-25T22:42:39.623Z,6.00
2022-12-25T22:45:10.367Z,5.45
2022-12-25T22:47:43.036Z,6.30
2022-12-25T22:50:14.677Z,5.80
2022-12-25T22:52:45.817Z,5.63
2022-12-25T22:55:18.829Z,5.47
2022-12-25T22:57:49.012Z,5.63
2022-12-25T23:00:18.775Z,5.60
2022-12-25T23:02:51.159Z,5.65
2022-12-25T23:05:20.864Z,5.78
2022-12-25T23:07:50.440Z,5.90
2022-12-25T23:10:20.191Z,6.40
2022-12-25T23:13:02.257Z,5.95
2022-12-25T23:15:32.546Z,6.07
2022-12-25T23:18:17.278Z,6.07
2022-12-25T23:20:59.352Z,6.40
2022-12-25T23:23:41.413Z,6.47
2022-12-25T23:26:11.210Z,6.35
2022-12-25T23:28:54.801Z,6.05
2022-12-25T23:33:58.131Z,6.10
2022-12-25T23:36:27.812Z,6.13
2022-12-25T23:39:01.613Z,5.97
2022-12-25T23:41:34.679Z,6.07
2022-12-25T23:44:04.361Z,5.88
2022-12-25T23:46:34.403Z,5.80
2022-12-25T23:49:07.010Z,5.60
2022-12-25T23:51:37.780Z,5.35
2022-12-25T23:54:07.895Z,5.35
2022-12-25T23:56:37.586Z,5.45
2022-12-25T23:59:07.860Z,6.00
